Time;durP1;ratioP1;P1;durP2;ratioP2;P2;SDS_P1;SDS_P2;PMS_P1;PMS_P2;Temp;Humidity;BMP_temperature;BMP_pressure;BME280_temperature;BME280_humidity;BME280_pressure;Samples;Min_cycle;Max_cycle;Signal;HPM_P1;HPM_P2
2023/08/31 04:43:33;;;;;;;49.80;16.60;;;;;;;17.38;74.24;99572.86;110264;1249;22563;-38
2023/08/31 04:46:00;;;;;;;36.00;15.00;;;;;;;17.54;74.92;99570.80;110978;1249;22509;-37
2023/08/31 04:48:27;;;;;;;27.80;11.10;;;;;;;17.73;74.44;99572.33;110213;1248;22479;-38
2023/08/31 04:50:56;;;;;;;21.70;10.40;;;;;;;18.03;74.31;99577.50;111032;1248;22504;-44
2023/08/31 04:53:24;;;;;;;39.00;10.90;;;;;;;18.43;72.48;99582.27;110509;1249;22512;-38
2023/08/31 04:55:51;;;;;;;33.50;12.80;;;;;;;18.77;70.84;99581.69;110648;1248;26917;-39
2023/08/31 04:58:18;;;;;;;33.40;12.60;;;;;;;19.11;69.73;99585.10;110705;1248;22751;-45
2023/08/31 05:00:45;;;;;;;27.30;12.30;;;;;;;19.41;67.63;99585.64;109962;1248;24177;-40
2023/08/31 05:03:12;;;;;;;32.50;11.90;;;;;;;19.67;66.08;99586.93;109936;1249;22567;-45
2023/08/31 05:05:41;;;;;;;31.80;11.90;;;;;;;19.88;63.98;99585.70;110417;1248;24182;-39
2023/08/31 05:08:08;;;;;;;21.50;9.60;;;;;;;20.00;62.57;99584.41;112435;1248;22408;-38
2023/08/31 05:10:36;;;;;;;18.80;8.30;;;;;;;20.16;59.46;99584.45;110662;1249;24192;-43
2023/08/31 05:13:04;;;;;;;18.50;7.30;;;;;;;20.43;55.61;99581.84;113022;1248;22386;-37
2023/08/31 05:15:33;;;;;;;17.40;7.30;;;;;;;20.71;54.32;99580.25;112999;1248;22379;-38
2023/08/31 05:18:00;;;;;;;12.20;6.70;;;;;;;21.03;52.05;99578.48;113026;1249;23371;-45
2023/08/31 05:20:27;;;;;;;17.60;7.60;;;;;;;21.29;50.78;99572.30;113064;1249;22393;-39
2023/08/31 05:22:54;;;;;;;23.20;7.20;;;;;;;21.59;49.57;99573.69;111742;1249;22512;-45
2023/08/31 05:25:44;;;;;;;15.90;7.90;;;;;;;21.84;48.07;99575.25;112730;1249;23071;-47
2023/08/31 05:28:11;;;;;;;18.00;7.20;;;;;;;22.08;47.13;99575.44;112801;1249;22596;-38
2023/08/31 05:30:51;;;;;;;16.40;6.90;;;;;;;22.31;45.98;99575.91;112485;1249;22478;-41
2023/08/31 05:33:18;;;;;;;13.10;6.80;;;;;;;22.55;45.32;99575.51;112964;1248;22476;-38
2023/08/31 05:35:45;;;;;;;12.80;7.40;;;;;;;22.72;44.38;99577.52;112497;1249;23236;-46
2023/08/31 05:38:13;;;;;;;24.90;7.80;;;;;;;22.80;44.15;99582.33;111636;1248;22426;-37
2023/08/31 05:40:45;;;;;;;12.90;6.70;;;;;;;22.92;43.62;99582.36;112386;1249;22404;-36
2023/08/31 05:43:13;;;;;;;18.80;7.20;;;;;;;23.05;43.23;99579.52;112509;1249;23153;-40
2023/08/31 05:45:41;;;;;;;16.20;6.50;;;;;;;23.22;42.91;99571.20;111958;1249;22395;-45
2023/08/31 05:48:08;;;;;;;20.80;7.00;;;;;;;23.38;42.29;99568.74;112322;1249;22514;-44
2023/08/31 05:50:36;;;;;;;15.90;6.20;;;;;;;23.46;42.18;99567.70;112461;1249;22429;-46
2023/08/31 05:53:05;;;;;;;15.70;6.30;;;;;;;23.48;42.13;99568.45;112794;1249;22439;-45
2023/08/31 05:55:32;;;;;;;18.00;6.10;;;;;;;23.45;42.45;99571.18;112957;1249;23125;-45
2023/08/31 05:58:00;;;;;;;12.50;6.10;;;;;;;23.41;42.76;99573.73;112953;1247;22270;-45
2023/08/31 06:00:27;;;;;;;15.50;6.40;;;;;;;23.39;42.97;99575.31;112645;1249;22494;-39
2023/08/31 06:02:54;;;;;;;13.20;6.00;;;;;;;23.36;43.33;99574.95;112588;1249;22412;-39
2023/08/31 06:05:21;;;;;;;16.40;6.70;;;;;;;23.34;43.75;99571.14;113008;1249;23134;-46
2023/08/31 06:07:48;;;;;;;15.80;5.90;;;;;;;23.34;44.07;99567.36;112978;1249;22411;-45
2023/08/31 06:10:16;;;;;;;16.20;7.10;;;;;;;23.41;44.31;99566.27;112923;1249;22897;-38
2023/08/31 06:12:43;;;;;;;22.30;6.20;;;;;;;23.48;44.58;99569.17;112926;1249;22800;-45
2023/08/31 06:15:10;;;;;;;16.80;5.90;;;;;;;23.53;44.60;99572.42;112945;1249;22157;-45
2023/08/31 06:17:37;;;;;;;18.90;6.20;;;;;;;23.53;44.78;99571.70;112944;1249;22452;-46
2023/08/31 06:20:05;;;;;;;27.90;7.10;;;;;;;23.56;45.01;99577.38;112924;1249;23298;-39
2023/08/31 06:22:33;;;;;;;13.10;5.80;;;;;;;23.63;45.43;99588.84;112897;1248;22229;-39
2023/08/31 06:25:00;;;;;;;14.80;5.70;;;;;;;23.70;45.87;99596.64;112887;1249;22389;-38
2023/08/31 06:27:28;;;;;;;16.40;6.10;;;;;;;23.72;45.68;99590.95;112893;1249;22384;-38
2023/08/31 06:29:55;;;;;;;14.10;6.30;;;;;;;23.71;46.12;99585.13;112901;1249;22406;-39
2023/08/31 06:32:23;;;;;;;14.40;5.90;;;;;;;23.78;46.68;99587.69;112929;1249;22362;-39
2023/08/31 06:34:50;;;;;;;23.90;6.60;;;;;;;23.89;46.86;99587.86;112934;1249;24031;-38
2023/08/31 06:37:17;;;;;;;17.20;6.10;;;;;;;24.03;46.78;99586.09;112990;1249;22420;-39
2023/08/31 06:39:44;;;;;;;18.90;6.70;;;;;;;24.17;47.03;99589.73;112939;1249;22613;-38
2023/08/31 06:42:11;;;;;;;28.40;8.80;;;;;;;24.32;46.79;99593.54;112949;1249;22490;-46
2023/08/31 06:44:38;;;;;;;17.40;7.60;;;;;;;24.46;46.77;99595.14;112754;1249;22612;-46
2023/08/31 06:47:05;;;;;;;17.20;6.70;;;;;;;24.61;47.13;99599.08;112921;1249;22467;-45
2023/08/31 06:49:33;;;;;;;21.70;7.00;;;;;;;24.77;47.79;99596.16;112978;1249;22432;-39
2023/08/31 06:52:01;;;;;;;20.40;6.60;;;;;;;24.95;48.59;99594.20;111585;1249;22575;-38
2023/08/31 06:54:28;;;;;;;15.40;6.90;;;;;;;25.13;48.56;99593.13;112341;1249;23173;-38
2023/08/31 06:56:55;;;;;;;13.20;6.00;;;;;;;25.31;48.45;99591.13;111797;1249;22498;-46
2023/08/31 06:59:22;;;;;;;26.90;6.90;;;;;;;25.44;48.06;99595.05;112843;1249;23020;-50
2023/08/31 07:01:50;;;;;;;21.70;6.50;;;;;;;25.53;48.45;99599.35;112829;1249;22393;-45
2023/08/31 07:04:17;;;;;;;12.40;6.30;;;;;;;25.59;49.15;99596.81;112539;1249;23006;-47
2023/08/31 07:06:45;;;;;;;27.00;6.90;;;;;;;25.67;48.61;99592.07;112607;1249;22496;-38
2023/08/31 07:09:12;;;;;;;17.40;5.90;;;;;;;25.74;49.02;99588.35;112888;1248;23240;-38
2023/08/31 07:11:40;;;;;;;11.70;5.40;;;;;;;25.76;48.38;99589.84;112913;1249;22378;-37
2023/08/31 07:14:07;;;;;;;14.30;6.00;;;;;;;25.70;48.25;99586.45;112469;1249;22507;-38
2023/08/31 07:16:34;;;;;;;17.70;6.00;;;;;;;25.70;49.33;99589.02;112592;1249;22512;-40
2023/08/31 07:19:02;;;;;;;17.00;6.00;;;;;;;25.73;49.80;99587.69;112435;1249;23132;-37
2023/08/31 07:21:29;;;;;;;18.80;5.70;;;;;;;25.77;49.54;99586.17;112270;1249;22265;-38
2023/08/31 07:23:57;;;;;;;13.50;6.10;;;;;;;25.83;49.19;99584.48;112495;1249;22496;-38
2023/08/31 07:26:25;;;;;;;19.80;6.50;;;;;;;25.89;49.63;99579.02;111892;1249;23107;-46
2023/08/31 07:28:52;;;;;;;13.10;5.70;;;;;;;26.04;49.45;99575.41;112803;1249;22471;-45
2023/08/31 07:31:19;;;;;;;10.00;5.60;;;;;;;26.23;49.19;99573.59;112333;1249;23048;-38
2023/08/31 07:33:52;;;;;;;10.30;5.70;;;;;;;26.41;48.95;99571.20;110855;1249;22547;-45
2023/08/31 07:36:19;;;;;;;12.00;5.70;;;;;;;26.55;48.81;99578.29;111738;1249;22377;-46
2023/08/31 07:38:46;;;;;;;16.30;6.50;;;;;;;26.67;48.66;99575.64;112260;1249;23148;-38
2023/08/31 07:41:14;;;;;;;18.60;5.80;;;;;;;26.72;48.11;99571.46;112175;1249;22661;-40
2023/08/31 07:43:41;;;;;;;18.30;5.70;;;;;;;26.82;48.39;99573.38;112930;1249;23205;-38
2023/08/31 07:46:21;;;;;;;14.70;5.60;;;;;;;26.94;47.87;99569.02;112930;1249;22426;-38
2023/08/31 07:48:50;;;;;;;17.50;6.10;;;;;;;27.04;47.99;99567.35;112997;1249;22353;-39
2023/08/31 07:51:17;;;;;;;11.80;5.30;;;;;;;27.15;48.53;99562.36;113001;1240;22250;-38
2023/08/31 07:53:44;;;;;;;19.30;6.50;;;;;;;27.28;48.89;99563.84;112758;1249;291980;-38
2023/08/31 07:56:10;;;;;;;11.20;6.00;;;;;;;27.41;49.09;99558.08;112984;1249;23502;-38
2023/08/31 07:58:37;;;;;;;11.20;6.00;;;;;;;27.58;49.09;99553.16;113010;1249;23036;-39
2023/08/31 08:01:05;;;;;;;12.10;5.90;;;;;;;27.72;49.65;99552.51;112973;1249;22368;-39
2023/08/31 08:03:32;;;;;;;12.50;5.40;;;;;;;27.85;50.58;99555.71;113005;1249;22307;-40
2023/08/31 08:05:59;;;;;;;17.30;5.10;;;;;;;27.95;50.97;99556.70;112982;1249;23137;-39
2023/08/31 08:08:27;;;;;;;20.00;5.70;;;;;;;28.05;51.34;99556.26;112265;1249;22427;-39
2023/08/31 08:10:54;;;;;;;14.50;5.10;;;;;;;28.13;51.94;99554.48;112497;1249;22566;-45
2023/08/31 08:13:22;;;;;;;16.20;5.80;;;;;;;28.22;52.05;99552.23;112640;1249;23464;-38
2023/08/31 08:15:49;;;;;;;18.30;5.50;;;;;;;28.36;51.14;99549.52;112064;1249;22411;-38
2023/08/31 08:18:16;;;;;;;14.20;5.80;;;;;;;28.45;51.26;99548.14;112964;1249;22383;-38
2023/08/31 08:20:47;;;;;;;9.70;4.90;;;;;;;28.46;51.60;99548.67;112974;1249;22376;-39
2023/08/31 08:23:14;;;;;;;14.90;5.40;;;;;;;28.49;51.85;99550.52;112855;1249;22954;-46
2023/08/31 08:25:41;;;;;;;14.60;5.30;;;;;;;28.56;51.70;99547.76;112582;1249;23302;-45
2023/08/31 08:28:09;;;;;;;10.20;5.90;;;;;;;28.63;51.69;99544.27;111279;1249;23151;-38
2023/08/31 08:30:36;;;;;;;10.20;5.00;;;;;;;28.65;51.70;99545.35;113000;1249;22367;-38
2023/08/31 08:33:03;;;;;;;12.80;5.60;;;;;;;28.67;52.16;99546.83;112783;1249;22881;-38
2023/08/31 08:35:30;;;;;;;16.50;5.10;;;;;;;28.71;51.73;99543.45;112868;1249;22507;-38
2023/08/31 08:37:57;;;;;;;12.80;5.30;;;;;;;28.76;51.43;99544.41;112959;1249;22407;-38
2023/08/31 08:40:25;;;;;;;19.00;6.00;;;;;;;28.81;50.66;99544.34;112682;1249;22730;-38
2023/08/31 08:42:53;;;;;;;15.30;5.50;;;;;;;28.86;51.06;99544.77;112784;1249;22354;-38
2023/08/31 08:45:20;;;;;;;15.80;5.30;;;;;;;28.97;51.62;99537.40;112881;1249;23196;-47
2023/08/31 08:47:47;;;;;;;14.30;4.90;;;;;;;29.10;51.79;99534.55;112792;1249;22941;-45
2023/08/31 08:50:14;;;;;;;11.10;5.00;;;;;;;29.22;51.40;99541.48;112619;1249;22385;-38
2023/08/31 08:52:41;;;;;;;8.80;5.30;;;;;;;29.27;50.91;99543.13;112531;1249;22374;-37
2023/08/31 08:55:09;;;;;;;14.00;5.40;;;;;;;29.31;51.29;99541.14;112658;1249;23359;-37
2023/08/31 08:57:35;;;;;;;14.50;5.10;;;;;;;29.34;51.32;99538.96;112757;1248;22371;-39
2023/08/31 09:00:03;;;;;;;18.20;5.00;;;;;;;29.29;51.42;99530.61;112814;1249;22398;-39
2023/08/31 09:02:33;;;;;;;11.80;5.40;;;;;;;29.28;51.71;99528.68;112503;1249;22431;-45
2023/08/31 09:05:00;;;;;;;19.90;5.10;;;;;;;29.32;51.45;99533.15;112919;1249;22397;-53
2023/08/31 09:07:35;;;;;;;16.60;5.30;;;;;;;29.43;51.20;99532.48;112763;1249;22586;-45
2023/08/31 09:10:03;;;;;;;10.10;5.50;;;;;;;29.53;50.78;99527.02;112744;1249;22489;-46
2023/08/31 09:12:31;;;;;;;13.30;4.90;;;;;;;29.64;50.68;99531.98;112760;1249;22487;-46
2023/08/31 09:14:59;;;;;;;9.30;4.50;;;;;;;29.70;50.29;99533.36;112908;1249;23189;-46
2023/08/31 09:17:26;;;;;;;10.10;4.80;;;;;;;29.72;50.88;99537.98;112851;1249;22370;-38
2023/08/31 09:20:00;;;;;;;7.30;4.90;;;;;;;29.76;50.30;99544.13;112953;1249;22366;-38
2023/08/31 09:22:27;;;;;;;6.80;4.40;;;;;;;29.83;49.97;99542.61;112959;1249;23158;-46
2023/08/31 09:24:54;;;;;;;15.10;5.00;;;;;;;29.89;49.69;99544.70;112936;1249;23384;-45
2023/08/31 09:27:24;;;;;;;10.10;5.20;;;;;;;29.97;49.37;99548.52;112183;1249;23151;-46
2023/08/31 09:29:54;;;;;;;9.00;4.30;;;;;;;30.01;49.07;99548.07;112676;1248;22559;-46
2023/08/31 09:32:21;;;;;;;12.00;4.70;;;;;;;30.07;49.19;99549.48;110799;1249;22540;-38
2023/08/31 09:34:48;;;;;;;13.30;5.30;;;;;;;30.14;49.14;99555.20;110814;1249;22577;-39
2023/08/31 09:37:21;;;;;;;11.10;4.50;;;;;;;30.19;49.01;99551.65;112062;1249;22521;-37
2023/08/31 09:39:49;;;;;;;17.60;5.00;;;;;;;30.23;48.86;99544.84;112218;1249;22442;-38
2023/08/31 09:42:16;;;;;;;8.70;4.50;;;;;;;30.30;48.74;99544.70;113000;1249;22552;-38
2023/08/31 09:44:43;;;;;;;19.00;4.80;;;;;;;30.34;48.80;99548.63;112994;1249;23138;-45
2023/08/31 09:47:11;;;;;;;8.80;5.10;;;;;;;30.39;48.81;99556.05;113005;1248;22425;-45
2023/08/31 09:49:39;;;;;;;9.70;4.60;;;;;;;30.37;48.51;99559.12;112708;1248;22237;-45
2023/08/31 09:52:07;;;;;;;14.80;5.40;;;;;;;30.35;48.51;99559.70;112797;1249;22443;-39
2023/08/31 09:54:35;;;;;;;9.70;4.70;;;;;;;30.33;48.34;99546.59;112687;1249;22403;-45
2023/08/31 09:57:02;;;;;;;11.00;5.10;;;;;;;30.36;48.43;99543.27;112899;1249;22430;-37
2023/08/31 09:59:29;;;;;;;9.50;5.10;;;;;;;30.42;48.76;99546.48;112935;1249;22364;-39
2023/08/31 10:01:57;;;;;;;11.40;4.50;;;;;;;30.45;49.02;99546.70;112793;1249;22489;-39
2023/08/31 10:04:24;;;;;;;16.20;5.20;;;;;;;30.44;47.75;99546.02;112959;1248;22395;-39
2023/08/31 10:06:51;;;;;;;9.80;4.40;;;;;;;30.39;47.28;99540.09;112786;1249;22290;-39
2023/08/31 10:09:18;;;;;;;8.60;4.40;;;;;;;30.38;47.48;99534.80;112817;1249;22359;-40
2023/08/31 10:11:45;;;;;;;12.50;4.80;;;;;;;30.45;48.01;99532.83;111584;1249;23306;-38
2023/08/31 10:14:12;;;;;;;9.70;4.40;;;;;;;30.56;48.18;99533.83;112328;1248;22492;-39
2023/08/31 10:16:40;;;;;;;13.10;5.10;;;;;;;30.58;48.08;99531.10;112744;1249;22419;-39
2023/08/31 10:19:08;;;;;;;8.80;4.40;;;;;;;30.54;47.75;99532.92;112967;1249;22383;-39
2023/08/31 10:21:44;;;;;;;9.10;4.20;;;;;;;30.48;48.07;99540.06;112923;1249;22660;-40
2023/08/31 10:24:11;;;;;;;9.20;4.50;;;;;;;30.46;48.23;99540.12;112986;1249;22347;-47
2023/08/31 10:26:38;;;;;;;14.00;4.40;;;;;;;30.50;48.03;99539.22;111689;1249;22601;-39
2023/08/31 10:29:05;;;;;;;7.20;3.70;;;;;;;30.52;48.02;99537.56;111706;1248;22448;-39
2023/08/31 10:31:34;;;;;;;7.90;4.20;;;;;;;30.48;48.35;99542.80;111783;1249;24090;-38
2023/08/31 10:34:21;;;;;;;13.10;4.70;;;;;;;30.51;48.29;99545.09;111343;1249;23322;-37
2023/08/31 10:36:50;;;;;;;13.30;5.10;;;;;;;30.77;47.47;99544.05;111896;1249;22504;-37
2023/08/31 10:39:27;;;;;;;9.10;4.40;;;;;;;31.22;46.86;99537.31;112859;1249;22498;-46
2023/08/31 10:41:55;;;;;;;8.80;4.10;;;;;;;31.86;45.59;99533.20;111269;1249;23232;-47
2023/08/31 10:44:26;;;;;;;11.80;4.90;;;;;;;32.55;42.87;99532.27;111947;1249;22350;-37
2023/08/31 10:46:53;;;;;;;22.20;6.50;;;;;;;33.04;41.17;99535.42;112681;1249;22498;-38
2023/08/31 10:49:21;;;;;;;11.30;4.30;;;;;;;33.31;39.66;99533.51;111800;1249;22508;-39
2023/08/31 10:51:53;;;;;;;18.60;4.60;;;;;;;33.45;39.61;99530.59;110625;1249;23550;-39
2023/08/31 10:54:26;;;;;;;9.20;4.20;;;;;;;33.57;39.60;99531.00;111656;1249;23376;-38
2023/08/31 10:57:06;;;;;;;11.80;4.20;;;;;;;33.45;39.23;99525.87;113015;1249;23281;-39
2023/08/31 10:59:44;;;;;;;14.00;4.20;;;;;;;33.23;39.86;99520.98;112908;1249;22354;-46
2023/08/31 11:02:38;;;;;;;11.50;4.80;;;;;;;33.38;39.79;99517.54;112969;1248;22414;-46
2023/08/31 11:05:14;;;;;;;10.40;4.30;;;;;;;33.80;39.20;99516.57;111663;1257;22237;-39
2023/08/31 11:07:45;;;;;;;10.70;4.00;;;;;;;34.14;38.40;99512.56;111479;1257;23201;-41
2023/08/31 11:10:19;;;;;;;12.70;4.50;;;;;;;34.21;36.58;99512.11;111239;1257;23240;-38
2023/08/31 11:12:52;;;;;;;13.40;4.40;;;;;;;33.95;36.97;99512.19;111369;1257;22518;-39
2023/08/31 11:15:20;;;;;;;7.30;4.10;;;;;;;33.72;37.60;99505.34;110355;1257;22558;-39
2023/08/31 11:17:52;;;;;;;8.00;4.40;;;;;;;33.46;38.17;99507.14;110295;1255;24191;-40
2023/08/31 11:20:20;;;;;;;;;;;;;;;33.18;39.16;99502.23;110461;1257;22471;-39
2023/08/31 11:22:54;;;;;;;13.50;5.10;;;;;;;33.03;39.72;99502.65;112225;1257;22392;-39
2023/08/31 11:25:25;;;;;;;15.10;4.20;;;;;;;32.90;39.90;99498.27;111321;1257;22314;-47
2023/08/31 11:27:57;;;;;;;8.60;4.10;;;;;;;32.79;39.97;99500.61;110590;1257;22522;-39
2023/08/31 11:30:32;;;;;;;10.90;3.90;;;;;;;32.71;39.06;99499.86;111698;1257;23448;-39
2023/08/31 11:33:06;;;;;;;13.00;4.40;;;;;;;32.60;38.63;99500.85;110397;1257;22648;-46
2023/08/31 11:35:39;;;;;;;8.90;4.30;;;;;;;32.45;38.45;99494.32;109653;1257;22527;-38
2023/08/31 11:38:06;;;;;;;8.80;5.20;;;;;;;32.32;38.78;99499.94;109717;1257;23369;-40
2023/08/31 11:40:34;;;;;;;7.50;4.30;;;;;;;32.22;38.82;99499.18;109631;1257;22520;-41
2023/08/31 11:43:01;;;;;;;10.60;4.90;;;;;;;32.07;39.59;99498.38;110670;1249;25590;-39
2023/08/31 11:45:28;;;;;;;11.10;4.40;;;;;;;31.97;39.98;99495.80;111122;1249;22515;-46
2023/08/31 11:47:55;;;;;;;6.90;4.30;;;;;;;31.99;40.05;99496.99;111525;1248;24338;-46
2023/08/31 11:50:23;;;;;;;11.30;4.40;;;;;;;32.07;40.05;99495.80;111570;1249;22481;-39
2023/08/31 11:52:53;;;;;;;6.70;4.40;;;;;;;32.09;40.27;99496.61;111316;1249;23072;-38
2023/08/31 11:55:23;;;;;;;13.10;4.70;;;;;;;32.01;40.23;99500.63;111559;1249;22711;-38
2023/08/31 11:57:56;;;;;;;6.90;4.00;;;;;;;31.83;40.63;99496.71;112776;1249;22414;-46
2023/08/31 12:00:24;;;;;;;9.10;4.70;;;;;;;31.80;40.51;99494.31;112979;1249;22350;-38
2023/08/31 12:03:00;;;;;;;7.50;4.20;;;;;;;31.81;40.52;99491.49;111828;1249;26467;-47
2023/08/31 12:05:28;;;;;;;6.20;3.70;;;;;;;31.80;39.85;99490.34;110548;1249;25301;-46
2023/08/31 12:07:56;;;;;;;5.90;3.80;;;;;;;31.71;39.59;99484.17;110851;1249;22503;-39
2023/08/31 12:10:24;;;;;;;12.10;4.70;;;;;;;31.53;39.63;99483.70;111767;1240;22713;-39
2023/08/31 12:12:53;;;;;;;13.20;4.90;;;;;;;31.40;40.41;99474.52;112211;1249;25260;-45
2023/08/31 12:15:22;;;;;;;12.50;4.60;;;;;;;31.37;40.54;99478.75;112027;1249;22426;-39
2023/08/31 12:17:54;;;;;;;15.40;4.70;;;;;;;31.40;41.11;99480.39;112946;1249;22386;-46
2023/08/31 12:20:27;;;;;;;8.00;4.50;;;;;;;31.47;41.08;99477.95;112949;1248;22408;-40
2023/08/31 12:22:54;;;;;;;10.30;4.90;;;;;;;31.51;40.89;99473.89;112774;1249;22402;-40
2023/08/31 12:25:21;;;;;;;6.80;4.20;;;;;;;31.59;40.50;99473.01;112977;1248;22231;-39
2023/08/31 12:27:49;;;;;;;9.50;4.00;;;;;;;31.62;39.95;99468.52;112957;1249;22425;-46
2023/08/31 12:30:16;;;;;;;8.30;4.80;;;;;;;31.62;39.82;99463.99;112941;1249;22408;-45
2023/08/31 12:32:43;;;;;;;9.70;4.40;;;;;;;31.65;39.86;99463.67;112977;1249;22356;-38
2023/08/31 12:35:11;;;;;;;11.10;4.40;;;;;;;31.77;39.51;99464.10;110540;1248;22489;-45
2023/08/31 12:37:38;;;;;;;11.70;5.00;;;;;;;31.90;38.65;99465.14;110483;1249;22518;-39
2023/08/31 12:40:09;;;;;;;12.10;4.40;;;;;;;31.94;38.30;99460.23;112691;1249;23212;-46
2023/08/31 12:42:36;;;;;;;7.20;4.10;;;;;;;31.94;38.12;99458.96;112450;1249;23283;-46
2023/08/31 12:45:05;;;;;;;6.80;3.70;;;;;;;32.00;36.61;99454.40;113008;1249;22373;-45
2023/08/31 12:47:32;;;;;;;10.60;4.10;;;;;;;31.99;34.88;99450.64;112943;1249;22384;-46
2023/08/31 12:49:59;;;;;;;7.60;4.00;;;;;;;32.03;34.73;99445.45;113010;1249;22437;-38
2023/08/31 12:52:26;;;;;;;15.80;4.10;;;;;;;32.08;34.84;99444.73;112984;1249;22337;-39
2023/08/31 12:54:53;;;;;;;10.40;4.60;;;;;;;32.13;35.27;99441.54;112947;1249;23000;-38
2023/08/31 12:57:20;;;;;;;8.00;3.90;;;;;;;32.25;35.95;99436.83;112986;1249;23040;-45
2023/08/31 12:59:47;;;;;;;11.70;3.90;;;;;;;32.40;35.80;99434.98;112956;1249;23547;-45
2023/08/31 13:02:15;;;;;;;10.00;4.90;;;;;;;32.57;35.87;99430.94;112948;1249;22416;-40
2023/08/31 13:04:42;;;;;;;9.50;4.00;;;;;;;32.73;35.74;99429.15;112767;1249;22236;-38
2023/08/31 13:07:09;;;;;;;15.10;4.30;;;;;;;32.77;35.36;99430.07;112966;1249;23201;-38
2023/08/31 13:09:36;;;;;;;9.70;3.70;;;;;;;32.82;35.75;99425.78;112961;1235;22361;-46
2023/08/31 13:12:04;;;;;;;11.80;4.00;;;;;;;32.93;35.24;99432.98;112854;1249;22529;-38
2023/08/31 13:14:31;;;;;;;9.40;4.30;;;;;;;32.95;35.31;99426.57;112106;1248;22935;-38
2023/08/31 13:16:59;;;;;;;10.10;4.10;;;;;;;32.96;35.20;99429.02;112969;1249;23080;-38
2023/08/31 13:19:26;;;;;;;5.00;4.00;;;;;;;33.02;35.30;99428.20;113052;1249;22832;-46
